This is the latest recevied weather packets stored in our database for station/object EA5FOG-11. If no packets are shown the sender has not sent any weather packets the latest 10 day(s).
| Time | Temp. | Humidity | Pressure | Rain* | Wind** | Luminosity | Snow |
|---|---|---|---|---|---|---|---|
| 1777563754 | 29.44° C | 41% | 956.7 hPa | - | - | - | - |
| 1777562853 | 31.67° C | 40% | 956.7 hPa | - | - | - | - |
| 1777561952 | 32.22° C | 40% | 956.7 hPa | - | - | - | - |
| 1777561052 | 28.33° C | 44% | 956.6 hPa | - | - | - | - |
| 1777560151 | 26.67° C | 45% | 956.7 hPa | - | - | - | - |
| 1777559250 | 26.67° C | 45% | 957 hPa | - | - | - | - |
| 1777558349 | 26.67° C | 45% | 957 hPa | - | - | - | - |
| 1777557448 | 27.22° C | 45% | 957 hPa | - | - | - | - |
| 1777556547 | 28.33° C | 44% | 957.1 hPa | - | - | - | - |
| 1777554765 | 27.78° C | 45% | 957.3 hPa | - | - | - | - |
| 1777553865 | 27.22° C | 45% | 957.4 hPa | - | - | - | - |
| 1777552964 | 26.67° C | 45% | 957.4 hPa | - | - | - | - |
| 1777552063 | 25.56° C | 46% | 957.4 hPa | - | - | - | - |
| 1777551162 | 26.11° C | 45% | 957.5 hPa | - | - | - | - |
| 1777550261 | 26.67° C | 44% | 957.4 hPa | - | - | - | - |
| 1777549361 | 27.78° C | 43% | 957.4 hPa | - | - | - | - |
| 1777548460 | 30° C | 42% | 957.5 hPa | - | - | - | - |
| 1777547559 | 28.33° C | 43% | 957.5 hPa | - | - | - | - |
| 1777546658 | 29.44° C | 43% | 957.7 hPa | - | - | - | - |
| 1777545758 | 33.33° C | 41% | 957.8 hPa | - | - | - | - |
| 1777544857 | 32.22° C | 43% | 957.9 hPa | - | - | - | - |
| 1777543956 | 32.22° C | 43% | 958 hPa | - | - | - | - |
| 1777543055 | 31.11° C | 44% | 958 hPa | - | - | - | - |
| 1777542154 | 30.56° C | 45% | 958 hPa | - | - | - | - |
| 1777541253 | 31.67° C | 45% | 958.3 hPa | - | - | - | - |
* Rain since midnight (hover to see other rain measurements)
** Current wind speed in m/s (hover to see current wind gust speed)